createdAt,value
2018-06-11T00:00:57.483Z,97.38
2018-06-11T00:01:57.516Z,97.47
2018-06-11T00:02:57.507Z,98.05
2018-06-11T00:03:57.522Z,96.99
2018-06-11T00:04:57.537Z,97.28
2018-06-11T00:05:57.553Z,97.52
2018-06-11T00:06:57.569Z,97.52
2018-06-11T00:07:57.589Z,97.28
2018-06-11T00:08:57.604Z,97.66
2018-06-11T00:09:57.620Z,97.18
2018-06-11T00:10:57.638Z,96.99
2018-06-11T00:11:57.654Z,97.66
2018-06-11T00:12:57.669Z,96.89
2018-06-11T00:13:57.689Z,97.28
2018-06-11T00:14:57.709Z,97.28
2018-06-11T00:15:57.722Z,97.09
2018-06-11T00:16:57.786Z,97.28
2018-06-11T00:17:57.748Z,97.18
2018-06-11T00:18:57.766Z,97.28
2018-06-11T00:19:57.780Z,96.70
2018-06-11T00:20:57.801Z,97.09
2018-06-11T00:21:57.816Z,96.89
2018-06-11T00:22:57.892Z,97.09
2018-06-11T00:23:57.847Z,97.09
2018-06-11T00:24:57.862Z,97.28
2018-06-11T00:25:57.887Z,97.38
2018-06-11T00:26:57.897Z,97.28
2018-06-11T00:27:57.910Z,97.47
2018-06-11T00:28:58.031Z,97.18
2018-06-11T00:29:57.945Z,97.66
2018-06-11T00:30:57.960Z,97.71
2018-06-11T00:31:57.978Z,97.85
2018-06-11T00:32:57.995Z,97.18
2018-06-11T00:33:58.011Z,97.33
2018-06-11T00:34:58.081Z,97.52
2018-06-11T00:35:58.043Z,97.56
2018-06-11T00:36:58.056Z,97.28
2018-06-11T00:37:58.175Z,97.56
2018-06-11T00:38:58.088Z,97.18
2018-06-11T00:39:58.110Z,97.66
2018-06-11T00:40:58.123Z,97.18
2018-06-11T00:41:58.143Z,97.38
2018-06-11T00:42:58.155Z,97.28
2018-06-11T00:43:58.169Z,96.89
2018-06-11T00:44:58.192Z,97.28
2018-06-11T00:45:58.207Z,96.99
2018-06-11T00:46:58.272Z,97.09
2018-06-11T00:47:58.233Z,97.09
2018-06-11T00:48:58.249Z,96.80
2018-06-11T00:49:58.275Z,96.89
2018-06-11T00:50:58.287Z,97.09
2018-06-11T00:51:58.304Z,97.38
2018-06-11T00:52:58.370Z,97.09
2018-06-11T00:53:58.337Z,97.18
2018-06-11T00:54:58.355Z,96.84
2018-06-11T00:55:58.370Z,97.28
2018-06-11T00:56:58.382Z,97.28
2018-06-11T00:57:58.439Z,97.09
2018-06-11T00:58:58.462Z,97.09
2018-06-11T00:59:58.431Z,96.70
2018-06-11T01:00:58.446Z,96.89
2018-06-11T01:01:58.467Z,96.70
2018-06-11T01:02:58.481Z,96.61
2018-06-11T01:03:58.553Z,96.70
2018-06-11T01:04:58.517Z,96.18
2018-06-11T01:05:58.527Z,97.38
2018-06-11T01:06:58.544Z,97.09
2018-06-11T01:07:58.563Z,97.09
2018-06-11T01:08:58.581Z,97.09
2018-06-11T01:09:58.595Z,96.89
2018-06-11T01:10:58.660Z,97.09
2018-06-11T01:11:58.624Z,97.28
2018-06-11T01:12:58.645Z,97.28
2018-06-11T01:13:58.662Z,97.14
2018-06-11T01:14:58.675Z,97.56
2018-06-11T01:15:58.693Z,97.52
2018-06-11T01:16:58.707Z,97.38
2018-06-11T01:17:58.720Z,97.18
2018-06-11T01:18:58.740Z,97.18
2018-06-11T01:19:58.757Z,96.70
2018-06-11T01:20:58.780Z,97.18
2018-06-11T01:21:58.787Z,97.09
2018-06-11T01:22:58.806Z,96.99
2018-06-11T01:23:58.816Z,97.09
2018-06-11T01:24:58.840Z,96.99
2018-06-11T01:25:58.853Z,96.70
2018-06-11T01:26:58.867Z,96.13
2018-06-11T01:27:58.888Z,96.18
2018-06-11T01:28:58.905Z,96.13
2018-06-11T01:29:58.919Z,96.51
2018-06-11T01:30:58.937Z,96.22
2018-06-11T01:31:58.998Z,96.42
2018-06-11T01:32:58.966Z,96.27
2018-06-11T01:33:58.985Z,96.08
2018-06-11T01:34:59.051Z,96.56
2018-06-11T01:35:59.018Z,96.47
2018-06-11T01:36:59.030Z,97.04
2018-06-11T01:37:59.047Z,97.04
2018-06-11T01:38:59.067Z,97.14
2018-06-11T01:39:59.083Z,97.14
2018-06-11T01:40:59.169Z,97.23
2018-06-11T01:41:59.108Z,96.94
2018-06-11T01:42:59.125Z,97.14
2018-06-11T01:43:59.144Z,96.84
2018-06-11T01:44:59.160Z,97.23
2018-06-11T01:45:59.174Z,96.94
2018-06-11T01:46:59.219Z,97.14
2018-06-11T01:47:59.207Z,97.04
2018-06-11T01:48:59.232Z,97.33
2018-06-11T01:49:59.241Z,97.23
2018-06-11T01:50:59.257Z,97.61
2018-06-11T01:51:59.275Z,97.80
2018-06-11T01:52:59.294Z,97.61
2018-06-11T01:53:59.309Z,97.23
2018-06-11T01:54:59.321Z,97.23
2018-06-11T01:55:59.341Z,97.71
2018-06-11T01:56:59.358Z,97.52
2018-06-11T01:57:59.373Z,97.61
2018-06-11T01:58:59.462Z,98.38
2018-06-11T01:59:59.405Z,98.10
2018-06-11T02:00:59.426Z,98.19
2018-06-11T02:01:59.438Z,98.47
2018-06-11T02:02:59.448Z,97.80
2018-06-11T02:03:59.469Z,97.61
2018-06-11T02:04:59.537Z,97.61
2018-06-11T02:05:59.500Z,97.71
2018-06-11T02:06:59.524Z,98.47
2018-06-11T02:07:59.534Z,98.57
2018-06-11T02:08:59.547Z,98.00
2018-06-11T02:09:59.618Z,98.38
2018-06-11T02:10:59.582Z,98.28
2018-06-11T02:11:59.597Z,98.47
2018-06-11T02:12:59.615Z,98.47
2018-06-11T02:13:59.631Z,98.00
2018-06-11T02:14:59.641Z,98.47
2018-06-11T02:15:59.658Z,98.00
2018-06-11T02:16:59.675Z,97.71
2018-06-11T02:17:59.695Z,97.61
2018-06-11T02:18:59.706Z,97.42
2018-06-11T02:19:59.725Z,97.33
2018-06-11T02:20:59.740Z,97.61
2018-06-11T02:21:59.790Z,97.52
2018-06-11T02:22:59.777Z,97.52
2018-06-11T02:23:59.790Z,97.42
2018-06-11T02:24:59.807Z,97.52
2018-06-11T02:25:59.819Z,97.61
2018-06-11T02:26:59.839Z,97.52
2018-06-11T02:27:59.899Z,97.61
2018-06-11T02:28:59.875Z,97.61
2018-06-11T02:29:59.885Z,97.90
2018-06-11T02:30:59.900Z,98.67
2018-06-11T02:31:59.917Z,98.28
2018-06-11T02:32:59.931Z,98.38
2018-06-11T02:34:00.008Z,98.38
2018-06-11T02:34:59.986Z,98.86
2018-06-11T02:35:59.993Z,98.86
2018-06-11T02:36:59.999Z,98.67
2018-06-11T02:38:00.025Z,98.96
2018-06-11T02:39:00.034Z,99.34
2018-06-11T02:40:00.092Z,99.15
2018-06-11T02:41:00.062Z,99.15
2018-06-11T02:42:00.083Z,99.15
2018-06-11T02:43:00.098Z,99.34
2018-06-11T02:44:00.107Z,98.67
2018-06-11T02:45:00.133Z,98.67
2018-06-11T02:46:00.193Z,99.15
2018-06-11T02:47:00.159Z,98.86
2018-06-11T02:48:00.170Z,99.34
2018-06-11T02:49:00.187Z,98.76
2018-06-11T02:50:00.206Z,99.63
2018-06-11T02:51:00.218Z,99.63
2018-06-11T02:52:00.235Z,99.72
2018-06-11T02:53:00.256Z,99.53
2018-06-11T02:54:00.272Z,99.34
2018-06-11T02:55:00.285Z,99.43
2018-06-11T02:56:00.302Z,99.53
2018-06-11T02:57:00.318Z,99.24
2018-06-11T02:58:00.335Z,99.24
2018-06-11T02:59:00.350Z,99.63
2018-06-11T03:00:00.363Z,99.53
2018-06-11T03:01:00.387Z,99.53
2018-06-11T03:02:00.402Z,99.34
2018-06-11T03:03:00.416Z,99.53
2018-06-11T03:04:00.436Z,99.91
2018-06-11T03:05:00.451Z,99.99
2018-06-11T03:06:00.467Z,99.99
2018-06-11T03:07:00.477Z,99.99
2018-06-11T03:08:00.540Z,99.99
2018-06-11T03:09:00.510Z,99.82
2018-06-11T03:10:00.549Z,99.91
2018-06-11T03:11:00.577Z,99.99
2018-06-11T03:12:00.563Z,99.91
2018-06-11T03:13:00.578Z,99.72
2018-06-11T03:14:00.590Z,99.82
2018-06-11T03:15:00.610Z,99.99
2018-06-11T03:16:00.647Z,99.63
2018-06-11T03:17:00.703Z,99.82
2018-06-11T03:18:00.653Z,99.99
2018-06-11T03:19:00.676Z,99.63
2018-06-11T03:20:00.693Z,99.99
2018-06-11T03:21:00.702Z,99.99
2018-06-11T03:22:00.775Z,99.99
2018-06-11T03:23:00.792Z,99.99
2018-06-11T03:24:00.757Z,99.99
2018-06-11T03:25:00.768Z,99.99
2018-06-11T03:26:00.788Z,99.99
2018-06-11T03:27:00.806Z,99.91
2018-06-11T03:28:00.870Z,99.99
2018-06-11T03:29:00.832Z,99.82
2018-06-11T03:30:00.852Z,99.91
2018-06-11T03:31:00.863Z,99.82
2018-06-11T03:32:00.886Z,99.91
2018-06-11T03:33:00.897Z,99.99
2018-06-11T03:34:00.969Z,99.99
2018-06-11T03:35:00.936Z,99.99
2018-06-11T03:36:00.944Z,99.91
2018-06-11T03:37:00.967Z,99.91
2018-06-11T03:38:00.984Z,99.99
2018-06-11T03:39:00.996Z,99.99
2018-06-11T03:40:01.059Z,99.91
2018-06-11T03:41:01.030Z,99.99
2018-06-11T03:42:01.056Z,99.99
2018-06-11T03:43:01.061Z,99.99
2018-06-11T03:44:01.079Z,99.99
2018-06-11T03:45:01.093Z,99.99
2018-06-11T03:46:01.112Z,99.82
2018-06-11T03:47:01.125Z,99.99
2018-06-11T03:48:01.141Z,99.99
2018-06-11T03:49:01.160Z,99.99
2018-06-11T03:50:01.187Z,99.99
2018-06-11T03:51:01.194Z,99.99
2018-06-11T03:52:01.260Z,99.99
2018-06-11T03:53:01.293Z,99.99
2018-06-11T03:54:01.241Z,99.99
2018-06-11T03:55:01.254Z,99.99
2018-06-11T03:56:01.269Z,99.99
2018-06-11T03:57:01.287Z,99.99
2018-06-11T03:58:01.307Z,99.99
2018-06-11T03:59:01.390Z,99.99
2018-06-11T04:00:01.343Z,99.99
2018-06-11T04:01:01.352Z,99.99
2018-06-11T04:02:01.369Z,99.99
2018-06-11T04:03:01.387Z,99.99
2018-06-11T04:04:01.402Z,99.99
2018-06-11T04:05:01.473Z,99.99
2018-06-11T04:06:01.440Z,99.99
2018-06-11T04:07:01.450Z,99.99
2018-06-11T04:08:01.461Z,99.99
2018-06-11T04:09:01.483Z,99.99
2018-06-11T04:10:01.551Z,99.99
2018-06-11T04:11:01.627Z,99.99
2018-06-11T04:12:01.525Z,99.99
2018-06-11T04:13:01.545Z,99.99
2018-06-11T04:14:01.565Z,99.99
2018-06-11T04:15:01.578Z,99.99
2018-06-11T04:16:01.643Z,99.99
2018-06-11T04:17:01.669Z,99.99
2018-06-11T04:18:01.628Z,99.99
2018-06-11T04:19:01.642Z,99.99
2018-06-11T04:20:01.663Z,99.99
2018-06-11T04:21:01.684Z,99.99
2018-06-11T04:22:01.745Z,99.99
2018-06-11T04:23:01.777Z,99.99
2018-06-11T04:24:01.722Z,99.99
2018-06-11T04:25:01.742Z,99.99
2018-06-11T04:26:01.753Z,99.99
2018-06-11T04:27:01.771Z,99.99
2018-06-11T04:28:01.787Z,99.99
2018-06-11T04:29:01.852Z,99.99
2018-06-11T04:30:01.817Z,99.99
2018-06-11T04:31:01.835Z,99.99
2018-06-11T04:32:01.858Z,99.99
2018-06-11T04:33:01.874Z,99.99
2018-06-11T04:34:01.885Z,99.99
2018-06-11T04:35:01.939Z,99.99
2018-06-11T04:36:01.938Z,99.99
2018-06-11T04:37:01.933Z,99.99
2018-06-11T04:38:01.954Z,99.99
2018-06-11T04:39:01.975Z,99.99
2018-06-11T04:40:01.987Z,99.99
2018-06-11T04:41:02.023Z,99.99
2018-06-11T04:42:02.022Z,99.99
2018-06-11T04:43:02.035Z,99.99
2018-06-11T04:44:02.053Z,99.99
2018-06-11T04:45:02.065Z,99.99
2018-06-11T04:46:02.082Z,99.99
2018-06-11T04:47:02.188Z,99.99
2018-06-11T04:48:02.120Z,99.99
2018-06-11T04:49:02.133Z,99.99
2018-06-11T04:50:02.150Z,99.99
2018-06-11T04:51:02.167Z,99.99
2018-06-11T04:52:02.229Z,99.99
2018-06-11T04:53:02.248Z,99.99
2018-06-11T04:54:02.213Z,99.99
2018-06-11T04:55:02.280Z,99.99
2018-06-11T04:56:02.242Z,99.99
2018-06-11T04:57:02.257Z,99.99
2018-06-11T04:58:02.323Z,99.99
2018-06-11T04:59:02.329Z,99.99
2018-06-11T05:00:02.306Z,99.99
2018-06-11T05:01:02.328Z,99.99
2018-06-11T05:02:02.349Z,99.99
2018-06-11T05:03:02.357Z,99.99
2018-06-11T05:04:02.428Z,99.99
2018-06-11T05:05:02.404Z,99.99
2018-06-11T05:06:02.405Z,99.99
2018-06-11T05:07:02.420Z,99.99
2018-06-11T05:08:02.457Z,99.99
2018-06-11T05:09:02.459Z,99.99
2018-06-11T05:10:02.552Z,99.99
2018-06-11T05:11:02.490Z,99.99
2018-06-11T05:12:02.505Z,99.99
2018-06-11T05:13:02.518Z,99.99
2018-06-11T05:14:02.538Z,99.99
2018-06-11T05:15:02.551Z,99.99
2018-06-11T05:16:02.571Z,99.99
2018-06-11T05:17:02.584Z,99.99
2018-06-11T05:18:02.605Z,99.99
2018-06-11T05:19:02.615Z,99.99
2018-06-11T05:20:02.664Z,99.99
2018-06-11T05:21:02.649Z,99.99
2018-06-11T05:22:02.716Z,99.99
2018-06-11T05:23:02.686Z,99.99
2018-06-11T05:24:02.698Z,99.99
2018-06-11T05:25:02.718Z,99.99
2018-06-11T05:26:02.728Z,99.99
2018-06-11T05:27:02.749Z,99.99
2018-06-11T05:28:02.764Z,99.99
2018-06-11T05:29:02.780Z,99.99
2018-06-11T05:30:02.801Z,99.99
2018-06-11T05:31:02.812Z,99.99
2018-06-11T05:32:02.831Z,99.99
2018-06-11T05:33:02.844Z,99.99
2018-06-11T05:34:02.915Z,99.99
2018-06-11T05:35:02.877Z,99.99
2018-06-11T05:36:02.900Z,99.99
2018-06-11T05:37:02.909Z,99.99
2018-06-11T05:38:02.939Z,99.99
2018-06-11T05:39:02.949Z,99.99
2018-06-11T05:40:03.008Z,99.99
2018-06-11T05:41:02.978Z,99.99
2018-06-11T05:42:02.990Z,99.99
2018-06-11T05:43:03.008Z,99.99
2018-06-11T05:44:03.030Z,99.99
2018-06-11T05:45:03.046Z,99.99
2018-06-11T05:46:03.110Z,99.99
2018-06-11T05:47:03.133Z,99.99
2018-06-11T05:48:03.147Z,99.99
2018-06-11T05:49:03.115Z,99.99
2018-06-11T05:50:03.126Z,99.99
2018-06-11T05:51:03.140Z,99.99
2018-06-11T05:52:03.163Z,99.99
2018-06-11T05:53:03.170Z,99.99
2018-06-11T05:54:03.189Z,99.99
2018-06-11T05:55:03.207Z,99.99
2018-06-11T05:56:03.218Z,99.99
2018-06-11T05:57:03.238Z,99.99
2018-06-11T05:58:03.266Z,99.99
2018-06-11T05:59:03.295Z,99.99
2018-06-11T06:00:03.288Z,99.99
2018-06-11T06:01:03.305Z,99.87
2018-06-11T06:02:03.325Z,99.96
2018-06-11T06:03:03.335Z,99.87
2018-06-11T06:04:03.353Z,99.99
2018-06-11T06:05:03.416Z,99.99
2018-06-11T06:06:03.386Z,99.87
2018-06-11T06:07:03.405Z,99.87
2018-06-11T06:08:03.416Z,99.68
2018-06-11T06:09:03.436Z,99.58
2018-06-11T06:10:03.455Z,99.58
2018-06-11T06:11:03.538Z,99.58
2018-06-11T06:12:03.485Z,98.91
2018-06-11T06:13:03.504Z,98.52
2018-06-11T06:14:03.518Z,99.39
2018-06-11T06:15:03.534Z,99.01
2018-06-11T06:16:03.601Z,99.39
2018-06-11T06:17:03.656Z,99.68
2018-06-11T06:18:03.586Z,98.62
2018-06-11T06:19:03.601Z,98.91
2018-06-11T06:20:03.617Z,98.72
2018-06-11T06:21:03.632Z,98.91
2018-06-11T06:22:03.649Z,99.10
2018-06-11T06:23:03.667Z,98.43
2018-06-11T06:24:03.686Z,98.43
2018-06-11T06:25:03.699Z,98.62
2018-06-11T06:26:03.717Z,98.14
2018-06-11T06:27:03.732Z,99.01
2018-06-11T06:28:03.801Z,98.52
2018-06-11T06:29:03.817Z,98.67
2018-06-11T06:30:03.788Z,98.52
2018-06-11T06:31:03.796Z,98.96
2018-06-11T06:32:03.829Z,98.14
2018-06-11T06:33:03.885Z,98.14
2018-06-11T06:34:03.856Z,98.38
2018-06-11T06:35:03.865Z,98.14
2018-06-11T06:36:03.882Z,97.90
2018-06-11T06:37:03.899Z,98.10
2018-06-11T06:38:03.928Z,97.71
2018-06-11T06:39:03.981Z,97.33
2018-06-11T06:40:03.947Z,97.52
2018-06-11T06:41:03.961Z,97.28
2018-06-11T06:42:03.986Z,97.28
2018-06-11T06:43:04.004Z,97.42
2018-06-11T06:44:04.014Z,97.04
2018-06-11T06:45:04.080Z,96.94
2018-06-11T06:46:04.045Z,97.23
2018-06-11T06:47:04.072Z,97.42
2018-06-11T06:48:04.078Z,97.42
2018-06-11T06:49:04.094Z,97.14
2018-06-11T06:50:04.112Z,96.94
2018-06-11T06:51:04.177Z,97.14
2018-06-11T06:52:04.147Z,96.66
2018-06-11T06:53:04.166Z,96.56
2018-06-11T06:54:04.175Z,96.27
2018-06-11T06:55:04.201Z,96.18
2018-06-11T06:56:04.212Z,95.79
2018-06-11T06:57:04.281Z,96.27
2018-06-11T06:58:04.243Z,96.51
2018-06-11T06:59:04.314Z,96.03
2018-06-11T07:00:04.280Z,95.17
2018-06-11T07:01:04.300Z,94.79
2018-06-11T07:02:04.316Z,94.79
2018-06-11T07:03:04.334Z,95.17
2018-06-11T07:04:04.349Z,94.79
2018-06-11T07:05:04.383Z,94.16
2018-06-11T07:06:04.380Z,93.15
2018-06-11T07:07:04.394Z,93.97
2018-06-11T07:08:04.425Z,93.49
2018-06-11T07:09:04.483Z,93.77
2018-06-11T07:10:04.445Z,93.77
2018-06-11T07:11:04.462Z,93.39
2018-06-11T07:12:04.482Z,93.39
2018-06-11T07:13:04.493Z,93.39
2018-06-11T07:14:04.513Z,92.82
2018-06-11T07:15:04.577Z,92.05
2018-06-11T07:16:04.544Z,92.19
2018-06-11T07:17:04.566Z,91.90
2018-06-11T07:18:04.582Z,91.81
2018-06-11T07:19:04.594Z,92.00
2018-06-11T07:20:04.612Z,92.38
2018-06-11T07:21:04.634Z,91.33
2018-06-11T07:22:04.649Z,90.75
2018-06-11T07:23:04.665Z,90.84
2018-06-11T07:24:04.681Z,90.75
2018-06-11T07:25:04.703Z,90.52
2018-06-11T07:26:04.714Z,90.70
2018-06-11T07:27:04.799Z,90.61
2018-06-11T07:28:04.752Z,89.84
2018-06-11T07:29:04.767Z,90.03
2018-06-11T07:30:04.787Z,90.22
2018-06-11T07:31:04.802Z,89.31
2018-06-11T07:32:04.823Z,88.78
2018-06-11T07:33:04.895Z,87.92
2018-06-11T07:34:04.897Z,86.80
2018-06-11T07:35:04.871Z,85.13
2018-06-11T07:36:04.890Z,85.71
2018-06-11T07:37:04.910Z,86.14
2018-06-11T07:38:04.925Z,86.91
2018-06-11T07:39:04.994Z,87.29
2018-06-11T07:40:04.963Z,87.19
2018-06-11T07:41:05.064Z,87.24
2018-06-11T07:42:04.997Z,86.42
2018-06-11T07:43:05.014Z,84.59
2018-06-11T07:44:05.028Z,83.44
2018-06-11T07:45:05.099Z,83.39
2018-06-11T07:46:05.113Z,83.48
2018-06-11T07:47:05.081Z,82.94
2018-06-11T07:48:05.133Z,82.61
2018-06-11T07:49:05.114Z,83.39
2018-06-11T07:50:05.130Z,82.71
2018-06-11T07:51:05.204Z,82.32
2018-06-11T07:52:05.231Z,83.58
2018-06-11T07:53:05.184Z,82.75
2018-06-11T07:54:05.202Z,81.83
2018-06-11T07:55:05.218Z,81.25
2018-06-11T07:56:05.234Z,81.98
2018-06-11T07:57:05.259Z,82.94
2018-06-11T07:58:05.312Z,82.21
2018-06-11T07:59:05.293Z,81.79
2018-06-11T08:00:05.312Z,81.79
2018-06-11T08:01:05.325Z,81.60
2018-06-11T08:02:05.343Z,82.14
2018-06-11T08:03:05.416Z,82.52
2018-06-11T08:04:05.394Z,82.86
2018-06-11T08:05:05.397Z,83.06
2018-06-11T08:06:05.421Z,81.88
2018-06-11T08:07:05.441Z,81.21
2018-06-11T08:08:05.462Z,80.87
2018-06-11T08:09:05.527Z,80.38
2018-06-11T08:10:05.486Z,79.71
2018-06-11T08:11:05.512Z,79.81
2018-06-11T08:12:05.530Z,80.96
2018-06-11T08:13:05.553Z,80.83
2018-06-11T08:14:05.566Z,80.19
2018-06-11T08:15:05.638Z,80.14
2018-06-11T08:16:05.606Z,79.71
2018-06-11T08:17:05.616Z,79.17
2018-06-11T08:18:05.648Z,79.21
2018-06-11T08:19:05.652Z,78.48
2018-06-11T08:20:05.677Z,76.17
2018-06-11T08:21:05.748Z,75.68
2018-06-11T08:22:05.770Z,74.76
2018-06-11T08:23:05.736Z,75.92
2018-06-11T08:24:05.753Z,75.30
2018-06-11T08:25:05.765Z,75.88
2018-06-11T08:26:05.792Z,75.88
2018-06-11T08:27:05.803Z,76.32
2018-06-11T08:28:05.820Z,78.21
2018-06-11T08:29:05.845Z,78.08
2018-06-11T08:30:05.869Z,78.27
2018-06-11T08:31:05.879Z,78.27
2018-06-11T08:32:05.901Z,77.69
2018-06-11T08:33:05.920Z,78.08
2018-06-11T08:34:05.937Z,78.50
2018-06-11T08:35:05.952Z,78.85
2018-06-11T08:36:05.975Z,78.08
2018-06-11T08:37:05.992Z,78.17
2018-06-11T08:38:06.016Z,78.94
2018-06-11T08:39:06.035Z,78.17
2018-06-11T08:40:06.046Z,78.61
2018-06-11T08:41:06.066Z,79.25
2018-06-11T08:42:06.090Z,80.84
2018-06-11T08:43:06.157Z,80.36
2018-06-11T08:44:06.177Z,81.17
2018-06-11T08:45:06.151Z,81.04
2018-06-11T08:46:06.162Z,81.94
2018-06-11T08:47:06.179Z,82.04
2018-06-11T08:48:06.198Z,81.52
2018-06-11T08:49:06.274Z,82.42
2018-06-11T08:50:06.318Z,81.46
2018-06-11T08:51:06.274Z,80.69
2018-06-11T08:52:06.331Z,80.83
2018-06-11T08:53:06.331Z,79.00
2018-06-11T08:54:06.335Z,76.67
2018-06-11T08:55:06.334Z,75.16
2018-06-11T08:56:06.397Z,74.49
2018-06-11T08:57:06.358Z,74.20
2018-06-11T08:58:06.383Z,73.18
2018-06-11T08:59:06.396Z,72.02
2018-06-11T09:00:06.442Z,72.41
2018-06-11T09:01:06.433Z,71.19
2018-06-11T09:02:06.505Z,70.32
2018-06-11T09:03:06.475Z,71.44
2018-06-11T09:04:06.513Z,72.02
2018-06-11T09:05:06.513Z,71.34
2018-06-11T09:06:06.525Z,71.00
2018-06-11T09:07:06.547Z,70.51
2018-06-11T09:08:06.612Z,70.76
2018-06-11T09:09:06.588Z,71.06
2018-06-11T09:10:06.653Z,71.06
2018-06-11T09:11:06.634Z,71.73
2018-06-11T09:12:06.638Z,71.44
2018-06-11T09:13:06.661Z,71.44
2018-06-11T09:14:06.729Z,70.84
2018-06-11T09:15:06.702Z,68.13
2018-06-11T09:17:06.733Z,68.19
2018-06-11T09:18:06.784Z,68.39
2018-06-11T09:19:06.778Z,68.97
2018-06-11T09:20:06.847Z,69.26
2018-06-11T09:21:06.814Z,67.94
2018-06-11T09:22:06.837Z,66.24
2018-06-11T09:23:06.853Z,66.46
2018-06-11T09:24:06.869Z,66.24
2018-06-11T09:25:06.901Z,64.72
2018-06-11T09:26:06.965Z,64.14
2018-06-11T09:27:06.926Z,64.95
2018-06-11T09:28:06.951Z,66.11
2018-06-11T09:29:06.982Z,65.98
2018-06-11T09:30:06.984Z,66.08
2018-06-11T09:31:07.035Z,67.23
2018-06-11T09:32:07.027Z,67.43
2018-06-11T09:33:07.043Z,67.55
2018-06-11T09:34:07.066Z,65.01
2018-06-11T09:35:07.125Z,64.05
2018-06-11T09:36:07.101Z,63.08
2018-06-11T09:37:07.125Z,62.70
2018-06-11T09:38:07.156Z,63.15
2018-06-11T09:39:07.167Z,65.53
2018-06-11T09:40:07.187Z,65.72
2018-06-11T09:41:07.211Z,66.40
2018-06-11T09:42:07.226Z,66.20
2018-06-11T09:43:07.293Z,67.40
2018-06-11T09:44:07.328Z,69.32
2018-06-11T09:45:07.284Z,69.23
2018-06-11T09:46:07.306Z,69.42
2018-06-11T09:47:07.393Z,69.57
2018-06-11T09:48:07.344Z,70.54
2018-06-11T09:49:07.391Z,70.15
2018-06-11T09:50:07.382Z,69.13
2018-06-11T09:51:07.406Z,69.03
2018-06-11T09:52:07.423Z,67.20
2018-06-11T09:53:07.533Z,65.34
2018-06-11T09:54:07.460Z,65.20
2018-06-11T09:55:07.480Z,66.11
2018-06-11T09:56:07.503Z,67.30
2018-06-11T09:57:07.517Z,67.20
2018-06-11T09:58:07.542Z,67.26
2018-06-11T09:59:07.552Z,68.42
2018-06-11T10:00:07.575Z,68.61
2018-06-11T10:01:07.596Z,68.16
2018-06-11T10:02:07.615Z,68.13
2018-06-11T10:03:07.633Z,69.87
2018-06-11T10:04:07.651Z,69.64
2018-06-11T10:05:07.676Z,69.83
2018-06-11T10:06:07.695Z,69.83
2018-06-11T10:07:07.715Z,70.35
2018-06-11T10:08:07.725Z,69.38
2018-06-11T10:09:07.809Z,69.29
2018-06-11T10:10:07.764Z,68.42
2018-06-11T10:11:07.827Z,68.13
2018-06-11T10:12:07.800Z,67.94
2018-06-11T10:13:07.830Z,67.40
2018-06-11T10:14:07.867Z,66.49
2018-06-11T10:15:07.867Z,63.28
2018-06-11T10:16:07.885Z,61.95
2018-06-11T10:17:07.959Z,60.69
2018-06-11T10:18:07.920Z,60.53
2018-06-11T10:19:08.030Z,60.99
2018-06-11T10:20:07.961Z,61.05
2018-06-11T10:21:07.980Z,62.02
2018-06-11T10:22:08.002Z,62.40
2018-06-11T10:23:08.015Z,63.34
2018-06-11T10:24:08.039Z,64.40
2018-06-11T10:25:08.065Z,63.89
2018-06-11T10:27:08.100Z,64.66
2018-06-11T10:28:08.116Z,65.91
2018-06-11T10:29:08.133Z,65.24
2018-06-11T10:30:08.159Z,65.75
2018-06-11T10:31:08.227Z,65.63
2018-06-11T10:32:08.199Z,65.53
2018-06-11T10:33:08.213Z,65.66
2018-06-11T10:34:08.231Z,63.95
2018-06-11T10:35:08.251Z,62.31
2018-06-11T10:36:08.276Z,62.12
2018-06-11T10:37:08.295Z,61.83
2018-06-11T10:38:08.317Z,61.63
2018-06-11T10:39:08.353Z,61.18
2018-06-11T10:40:08.349Z,61.82
2018-06-11T10:41:08.392Z,60.95
2018-06-11T10:42:08.397Z,61.02
2018-06-11T10:43:08.464Z,61.30
2018-06-11T10:44:08.437Z,62.50
2018-06-11T10:45:08.450Z,62.70
2018-06-11T10:46:08.475Z,62.86
2018-06-11T10:47:08.494Z,64.21
2018-06-11T10:48:08.513Z,65.05
2018-06-11T10:49:08.530Z,64.47
2018-06-11T10:50:08.555Z,65.43
2018-06-11T10:51:08.577Z,65.63
2018-06-11T10:52:08.593Z,63.76
2018-06-11T10:53:08.617Z,62.53
2018-06-11T10:54:08.638Z,60.75
2018-06-11T10:55:08.651Z,58.27
2018-06-11T10:56:08.678Z,57.43
2018-06-11T10:57:08.697Z,57.19
2018-06-11T10:58:08.719Z,54.53
2018-06-11T10:59:08.739Z,52.78
2018-06-11T11:00:08.760Z,53.83
2018-06-11T11:01:08.824Z,53.02
2018-06-11T11:02:08.797Z,53.31
2018-06-11T11:03:08.822Z,54.33
2018-06-11T11:04:08.835Z,55.40
2018-06-11T11:05:08.863Z,55.35
2018-06-11T11:06:08.889Z,54.13
2018-06-11T11:07:08.958Z,55.24
2018-06-11T11:08:08.924Z,58.37
2018-06-11T11:09:08.947Z,59.44
2018-06-11T11:10:08.968Z,60.11
2018-06-11T11:11:09.028Z,58.28
2018-06-11T11:12:09.011Z,60.76
2018-06-11T11:13:09.068Z,60.69
2018-06-11T11:14:09.054Z,59.73
2018-06-11T11:15:09.074Z,60.24
2018-06-11T11:16:09.098Z,59.89
2018-06-11T11:17:09.156Z,58.01
2018-06-11T11:18:09.136Z,58.53
2018-06-11T11:19:09.160Z,57.66
2018-06-11T11:20:09.186Z,59.95
2018-06-11T11:21:09.199Z,60.60
2018-06-11T11:22:09.220Z,61.92
2018-06-11T11:23:09.343Z,61.44
2018-06-11T11:24:09.261Z,61.89
2018-06-11T11:25:09.336Z,61.70
2018-06-11T11:26:09.300Z,62.34
2018-06-11T11:27:09.327Z,60.89
2018-06-11T11:28:09.343Z,60.53
2018-06-11T11:29:09.418Z,60.11
2018-06-11T11:30:09.385Z,58.44
2018-06-11T11:31:09.417Z,57.30
2018-06-11T11:32:09.440Z,58.11
2018-06-11T11:33:09.448Z,57.33
2018-06-11T11:34:09.477Z,57.14
2018-06-11T11:35:09.501Z,56.52
2018-06-11T11:36:09.523Z,56.88
2018-06-11T11:37:09.586Z,59.69
2018-06-11T11:38:09.554Z,60.34
2018-06-11T11:39:09.573Z,62.31
2018-06-11T11:40:09.590Z,62.76
2018-06-11T11:41:09.654Z,63.70
2018-06-11T11:42:09.632Z,65.69
2018-06-11T11:43:09.717Z,67.40
2018-06-11T11:44:09.678Z,67.97
2018-06-11T11:45:09.695Z,68.55
2018-06-11T11:46:09.713Z,69.23
2018-06-11T11:47:09.799Z,68.93
2018-06-11T11:48:09.755Z,69.03
2018-06-11T11:49:09.793Z,68.55
2018-06-11T11:50:09.804Z,68.19
2018-06-11T11:51:09.840Z,68.29
2018-06-11T11:52:09.835Z,68.19
2018-06-11T11:53:09.896Z,67.17
2018-06-11T11:54:09.872Z,66.82
2018-06-11T11:55:09.943Z,64.92
2018-06-11T11:56:09.915Z,62.59
2018-06-11T11:57:09.939Z,60.72
2018-06-11T11:58:09.956Z,61.11
2018-06-11T11:59:09.990Z,61.18
2018-06-11T12:00:09.997Z,62.50
2018-06-11T12:01:10.021Z,62.24
2018-06-11T12:02:10.032Z,62.50
2018-06-11T12:03:10.062Z,63.56
2018-06-11T12:04:10.073Z,64.43
2018-06-11T12:05:10.141Z,65.01
2018-06-11T12:06:10.114Z,65.59
2018-06-11T12:07:10.131Z,65.43
2018-06-11T12:08:10.155Z,65.43
2018-06-11T12:09:10.178Z,65.63
2018-06-11T12:10:10.201Z,65.34
2018-06-11T12:11:10.223Z,64.56
2018-06-11T12:12:10.235Z,63.89
2018-06-11T12:13:10.255Z,64.56
2018-06-11T12:14:10.273Z,64.50
2018-06-11T12:15:10.292Z,62.95
2018-06-11T12:16:10.319Z,63.02
2018-06-11T12:17:10.395Z,63.28
2018-06-11T12:18:10.370Z,64.53
2018-06-11T12:19:10.401Z,65.78
2018-06-11T12:20:10.408Z,66.17
2018-06-11T12:21:10.416Z,65.50
2018-06-11T12:22:10.434Z,65.78
2018-06-11T12:23:10.480Z,65.98
2018-06-11T12:24:10.481Z,66.08
2018-06-11T12:25:10.596Z,65.50
2018-06-11T12:26:10.514Z,66.33
2018-06-11T12:27:10.542Z,68.23
2018-06-11T12:28:10.561Z,68.43
2018-06-11T12:29:10.574Z,69.29
2018-06-11T12:30:10.596Z,68.55
2018-06-11T12:31:10.667Z,66.40
2018-06-11T12:32:10.634Z,64.04
2018-06-11T12:33:10.654Z,62.75
2018-06-11T12:34:10.680Z,60.07
2018-06-11T12:35:10.702Z,58.94
2018-06-11T12:36:10.721Z,59.13
2018-06-11T12:37:10.792Z,58.23
2018-06-11T12:38:10.759Z,58.30
2018-06-11T12:39:10.779Z,58.62
2018-06-11T12:40:10.797Z,58.72
2018-06-11T12:41:10.822Z,57.81
2018-06-11T12:42:10.855Z,59.14
2018-06-11T12:43:10.874Z,61.36
2018-06-11T12:44:10.890Z,60.01
2018-06-11T12:45:10.911Z,62.01
2018-06-11T12:46:10.949Z,62.79
2018-06-11T12:47:10.954Z,63.24
2018-06-11T12:48:10.971Z,63.95
2018-06-11T12:49:10.996Z,61.01
2018-06-11T12:50:11.014Z,59.52
2018-06-11T12:51:11.036Z,59.20
2018-06-11T12:52:11.091Z,60.82
2018-06-11T12:53:11.073Z,62.04
2018-06-11T12:54:11.102Z,63.53
2018-06-11T12:55:11.120Z,64.18